Airfield :
LOGIN :

Register | Disclaimer

   EN    FR    IT 

 










Legend :    VFR   Marginal VFR   IFR   Intensive IFR   Very Intensive IFR
Visi :
Ceiling :
>= 8 km
>= 3000ft
5 to 8 km
1000 to 3000 ft
1500m to 5 km
500 to 1000 ft
800 to 1500m
200 to 500 ft
< 800m
< 200 ft
Symbols :   Thunderstorms  Fog  Heavy snow  Heavy precipitations  Wind > 20 kt
SIGMETs :     Misc.  Thunderstorms  Icing  Turbulence  Mountain Waves  Volcanic Ashes







- Airport Elevation : 465 ft
- IATA code : LEJ


EDDP - Leipzig Halle

CURRENT METAR :
  • 270250Z 34003KT CAVOK 00/M01 Q1012 NOSIG

EXPIRED METARs :
  • 270220Z VRB02KT CAVOK 00/M01 Q1012 NOSIG
  • 270150Z VRB01KT CAVOK 01/M01 Q1012 NOSIG
  • 270120Z 35002KT CAVOK 01/M01 Q1012 NOSIG
  • 270050Z 10002KT CAVOK 03/M00 Q1012 NOSIG
  • 270020Z 16001KT CAVOK 02/M00 Q1013 NOSIG

TAF TAF EDDP
Valid from the 27 at 00:00 until the 28 at 00:00 UTC


262300Z 2700/2724 23003KT CAVOK
BECMG 2706/2709 29008KT
PROB30
TEMPO 2710/2717 SHRAGS BKN012 BKN020CB
No reported NOTAMs for that airfield.



MET'MAP, your aeronautical weather chart ! - Copyright ORBIFLY December 2007 - Disclaimer

ORBIFLY MET'MAP TEAM :

Programming & Development : Alexandra Zaïnal
Concept & Development : Baudouin d'Aumeries
Co-Development & Prog : Marc-Olivier Méhu
Technical & hardware support : Manuel Goepfert

Contact : metmap@orbifly.com




SOURCES & CREDITS :

   NOAA